EZY116 GCLP-BIKF
Flight info
| Callsign | EZY116 |
|---|---|
| Flight time | N/A |
| Altitude | 24000 |
| Route | BIMBO UN745 SNT/N0452F340 T16 IDREL DCT NAVIX/M078F340 DCT 40N019W/M078F350 45N019W/M078F370 50N019W 55N019W 60N019W DCT 6119N/M078F380 DCT RUMUX DCT BASLU BASLU3K |
| Aircraft | A320/M-SDE3FGHIRWY/LB1 |
Departure
| Time | 2026-04-27 15:45 |
|---|---|
| Airport | Gran Canaria Airport (GCLP) |
Arrival
| Time | N/A |
|---|---|
| Airport | Keflavik International Airport (BIKF) |
| Time | Latitude | Longitude | Altitude | Speed | Heading |
|---|---|---|---|---|---|
| 2026-04-27 15:31 | 27.93733 | -15.38880 | 87 ft | 0 kts | 291° |
| 2026-04-27 15:39 | 27.93733 | -15.38879 | 90 ft | 1 kts | 291° |
| 2026-04-27 15:39 | 27.93727 | -15.38862 | 85 ft | 3 kts | 288° |
| 2026-04-27 15:40 | 27.93721 | -15.38840 | 89 ft | 3 kts | 283° |
| 2026-04-27 15:40 | 27.93717 | -15.38817 | 87 ft | 3 kts | 274° |
| 2026-04-27 15:40 | 27.93718 | -15.38795 | 86 ft | 3 kts | 247° |
| 2026-04-27 15:40 | 27.93725 | -15.38782 | 88 ft | 1 kts | 202° |
| 2026-04-27 15:41 | 27.93726 | -15.38782 | 88 ft | 0 kts | 201° |
| 2026-04-27 15:42 | 27.93707 | -15.38790 | 88 ft | 5 kts | 201° |
| 2026-04-27 15:42 | 27.93647 | -15.38814 | 86 ft | 15 kts | 199° |
| 2026-04-27 15:42 | 27.93546 | -15.38859 | 85 ft | 19 kts | 203° |
| 2026-04-27 15:43 | 27.93401 | -15.38917 | 84 ft | 26 kts | 201° |
| 2026-04-27 15:43 | 27.93141 | -15.39043 | 84 ft | 57 kts | 204° |
| 2026-04-27 15:43 | 27.92757 | -15.39189 | 92 ft | 63 kts | 190° |
| 2026-04-27 15:43 | 27.92175 | -15.39288 | 97 ft | 92 kts | 186° |
| 2026-04-27 15:44 | 27.91911 | -15.39279 | 90 ft | 9 kts | 110° |
| 2026-04-27 15:44 | 27.92008 | -15.39188 | 88 ft | 49 kts | 28° |
| 2026-04-27 15:44 | 27.92573 | -15.38941 | 63 ft | 122 kts | 20° |
| 2026-04-27 15:44 | 27.93533 | -15.38528 | 230 ft | 162 kts | 20° |
| 2026-04-27 15:45 | 27.94628 | -15.38003 | 816 ft | 181 kts | 23° |
| 2026-04-27 15:45 | 27.95866 | -15.37349 | 1309 ft | 210 kts | 22° |
| 2026-04-27 15:45 | 27.97253 | -15.36587 | 1974 ft | 231 kts | 23° |
| 2026-04-27 15:45 | 27.98727 | -15.35749 | 2888 ft | 243 kts | 24° |
| 2026-04-27 15:46 | 28.00282 | -15.34978 | 3649 ft | 251 kts | 17° |
| 2026-04-27 15:46 | 28.01955 | -15.34376 | 4401 ft | 255 kts | 15° |
| 2026-04-27 15:46 | 28.03673 | -15.33798 | 5241 ft | 258 kts | 15° |
| 2026-04-27 15:46 | 28.05402 | -15.33186 | 6032 ft | 263 kts | 16° |
| 2026-04-27 15:47 | 28.07150 | -15.32515 | 6758 ft | 267 kts | 17° |
| 2026-04-27 15:47 | 28.08910 | -15.31803 | 7458 ft | 270 kts | 19° |
| 2026-04-27 15:47 | 28.10682 | -15.31059 | 8166 ft | 273 kts | 19° |
| 2026-04-27 15:47 | 28.12473 | -15.30292 | 8867 ft | 277 kts | 19° |
| 2026-04-27 15:48 | 28.14288 | -15.29525 | 9568 ft | 279 kts | 16° |
| 2026-04-27 15:48 | 28.16176 | -15.28964 | 10207 ft | 285 kts | 13° |
| 2026-04-27 15:48 | 28.18185 | -15.28392 | 10369 ft | 308 kts | 13° |
| 2026-04-27 15:49 | 28.22596 | -15.27143 | 10793 ft | 345 kts | 13° |
| 2026-04-27 15:49 | 28.24943 | -15.26473 | 11340 ft | 351 kts | 13° |
| 2026-04-27 15:49 | 28.27326 | -15.25791 | 11924 ft | 355 kts | 12° |
| 2026-04-27 15:49 | 28.29731 | -15.25103 | 12525 ft | 359 kts | 12° |
| 2026-04-27 15:50 | 28.32167 | -15.24405 | 13110 ft | 363 kts | 12° |
| 2026-04-27 15:50 | 28.34664 | -15.23984 | 13657 ft | 364 kts | 356° |
| 2026-04-27 15:50 | 28.37125 | -15.24577 | 14170 ft | 364 kts | 335° |
| 2026-04-27 15:50 | 28.39224 | -15.26165 | 14679 ft | 365 kts | 314° |
| 2026-04-27 15:51 | 28.40665 | -15.28534 | 15192 ft | 368 kts | 293° |
| 2026-04-27 15:51 | 28.41366 | -15.31342 | 15706 ft | 372 kts | 284° |
| 2026-04-27 15:51 | 28.42231 | -15.34108 | 16224 ft | 374 kts | 298° |
| 2026-04-27 15:51 | 28.43762 | -15.36493 | 16737 ft | 376 kts | 312° |
| 2026-04-27 15:52 | 28.45556 | -15.38674 | 17285 ft | 379 kts | 314° |
| 2026-04-27 15:52 | 28.46781 | -15.40091 | 17638 ft | 381 kts | 315° |
| 2026-04-27 15:52 | 28.48675 | -15.42221 | 18160 ft | 383 kts | 315° |
| 2026-04-27 15:52 | 28.50591 | -15.44341 | 18631 ft | 386 kts | 315° |
| 2026-04-27 15:53 | 28.52524 | -15.46477 | 19081 ft | 389 kts | 315° |
| 2026-04-27 15:53 | 28.55161 | -15.49271 | 19686 ft | 393 kts | 322° |
| 2026-04-27 15:53 | 28.57462 | -15.50950 | 20126 ft | 395 kts | 333° |
| 2026-04-27 15:53 | 28.60021 | -15.52117 | 20563 ft | 399 kts | 343° |
| 2026-04-27 15:54 | 28.61854 | -15.52585 | 20857 ft | 401 kts | 350° |
| 2026-04-27 15:54 | 28.64624 | -15.53073 | 21293 ft | 403 kts | 350° |
| 2026-04-27 15:54 | 28.67373 | -15.53554 | 21705 ft | 405 kts | 350° |
| 2026-04-27 15:54 | 28.70172 | -15.54043 | 22119 ft | 407 kts | 350° |
| 2026-04-27 15:55 | 28.72983 | -15.54530 | 22523 ft | 410 kts | 350° |
| 2026-04-27 15:55 | 28.75808 | -15.55018 | 22914 ft | 412 kts | 350° |
| 2026-04-27 15:55 | 28.78649 | -15.55510 | 23303 ft | 414 kts | 350° |
| 2026-04-27 15:55 | 28.81500 | -15.56008 | 23670 ft | 416 kts | 350° |
| 2026-04-27 15:56 | 28.84374 | -15.56511 | 23976 ft | 418 kts | 350° |
| 2026-04-27 15:56 | 28.87251 | -15.57013 | 24285 ft | 420 kts | 350° |
| 2026-04-27 15:56 | 28.90141 | -15.57520 | 24592 ft | 421 kts | 350° |
| 2026-04-27 15:56 | 28.93053 | -15.58032 | 24895 ft | 423 kts | 350° |
| 2026-04-27 15:57 | 28.95963 | -15.58543 | 25193 ft | 424 kts | 350° |
| 2026-04-27 15:57 | 28.98893 | -15.59056 | 25485 ft | 426 kts | 350° |
| 2026-04-27 15:57 | 29.01827 | -15.59569 | 25772 ft | 427 kts | 350° |
| 2026-04-27 15:57 | 29.04771 | -15.60083 | 26062 ft | 429 kts | 350° |
| 2026-04-27 15:58 | 29.07726 | -15.60599 | 26335 ft | 430 kts | 350° |
| 2026-04-27 15:58 | 29.10691 | -15.61119 | 26609 ft | 432 kts | 350° |
| 2026-04-27 15:58 | 29.13631 | -15.61634 | 26870 ft | 433 kts | 350° |
| 2026-04-27 15:58 | 29.16653 | -15.62167 | 27130 ft | 435 kts | 350° |
| 2026-04-27 15:59 | 29.19648 | -15.62694 | 27377 ft | 436 kts | 350° |
| 2026-04-27 15:59 | 29.22620 | -15.63216 | 27619 ft | 438 kts | 350° |
| 2026-04-27 15:59 | 29.25639 | -15.63747 | 27858 ft | 439 kts | 350° |
| 2026-04-27 15:59 | 29.28665 | -15.64279 | 28095 ft | 440 kts | 349° |
| 2026-04-27 16:00 | 29.31699 | -15.64814 | 28314 ft | 442 kts | 349° |
| 2026-04-27 16:00 | 29.34741 | -15.65353 | 28533 ft | 443 kts | 349° |
| 2026-04-27 16:00 | 29.37791 | -15.65898 | 28739 ft | 444 kts | 349° |
| 2026-04-27 16:00 | 29.40850 | -15.66446 | 28945 ft | 445 kts | 349° |
| 2026-04-27 16:01 | 29.43914 | -15.66998 | 29139 ft | 447 kts | 349° |
| 2026-04-27 16:01 | 29.46984 | -15.67549 | 29400 ft | 446 kts | 349° |
| 2026-04-27 16:01 | 29.50048 | -15.68100 | 29681 ft | 445 kts | 349° |
| 2026-04-27 16:01 | 29.53106 | -15.68651 | 29952 ft | 444 kts | 349° |
| 2026-04-27 16:02 | 29.56113 | -15.69193 | 30217 ft | 443 kts | 349° |
| 2026-04-27 16:02 | 29.59153 | -15.69740 | 30462 ft | 442 kts | 349° |
| 2026-04-27 16:02 | 29.62188 | -15.70287 | 30721 ft | 441 kts | 349° |
| 2026-04-27 16:02 | 29.65213 | -15.70831 | 30974 ft | 439 kts | 349° |
| 2026-04-27 16:03 | 29.68228 | -15.71374 | 31212 ft | 438 kts | 349° |
| 2026-04-27 16:03 | 29.71242 | -15.71917 | 31457 ft | 437 kts | 349° |
| 2026-04-27 16:03 | 29.74236 | -15.72456 | 31706 ft | 435 kts | 349° |
| 2026-04-27 16:03 | 29.77227 | -15.72992 | 31945 ft | 434 kts | 349° |
| 2026-04-27 16:04 | 29.80209 | -15.73531 | 32175 ft | 433 kts | 348° |
| 2026-04-27 16:04 | 29.83183 | -15.74071 | 32412 ft | 432 kts | 348° |
| 2026-04-27 16:04 | 29.86158 | -15.74610 | 32647 ft | 431 kts | 348° |
| 2026-04-27 16:04 | 29.89119 | -15.75146 | 32879 ft | 430 kts | 348° |
| 2026-04-27 16:05 | 29.92078 | -15.75681 | 33105 ft | 429 kts | 348° |
| 2026-04-27 16:05 | 29.95028 | -15.76218 | 33329 ft | 429 kts | 348° |
| 2026-04-27 16:05 | 29.97969 | -15.76752 | 33556 ft | 428 kts | 348° |
| 2026-04-27 16:05 | 30.00900 | -15.77285 | 33776 ft | 427 kts | 348° |
| 2026-04-27 16:06 | 30.03800 | -15.77811 | 33991 ft | 426 kts | 348° |
| 2026-04-27 16:06 | 30.09656 | -15.78868 | 34072 ft | 425 kts | 348° |
| 2026-04-27 16:07 | 30.15508 | -15.79933 | 34072 ft | 426 kts | 348° |
| 2026-04-27 16:07 | 30.21371 | -15.80998 | 34075 ft | 427 kts | 348° |
| 2026-04-27 16:08 | 30.27244 | -15.82069 | 34075 ft | 428 kts | 348° |
| 2026-04-27 16:08 | 30.33132 | -15.83138 | 34071 ft | 428 kts | 348° |
| 2026-04-27 16:09 | 30.39032 | -15.84223 | 34074 ft | 429 kts | 348° |
| 2026-04-27 16:09 | 30.47893 | -15.85853 | 34075 ft | 430 kts | 348° |
| 2026-04-27 16:10 | 30.59703 | -15.88016 | 34072 ft | 432 kts | 349° |
| 2026-04-27 16:11 | 30.68620 | -15.89658 | 34076 ft | 433 kts | 349° |
| 2026-04-27 16:12 | 30.77558 | -15.91305 | 34080 ft | 434 kts | 349° |
| 2026-04-27 16:13 | 30.86507 | -15.92947 | 34079 ft | 434 kts | 349° |
| 2026-04-27 16:13 | 30.95482 | -15.94599 | 34079 ft | 435 kts | 349° |
| 2026-04-27 16:14 | 31.07427 | -15.96814 | 34082 ft | 436 kts | 349° |
| 2026-04-27 16:15 | 31.19431 | -15.99046 | 34083 ft | 436 kts | 349° |
| 2026-04-27 16:16 | 31.31433 | -16.01283 | 34088 ft | 437 kts | 349° |
| 2026-04-27 16:17 | 31.43395 | -16.03527 | 34084 ft | 437 kts | 349° |
| 2026-04-27 16:18 | 31.55409 | -16.05768 | 34086 ft | 437 kts | 349° |
| 2026-04-27 16:19 | 31.61415 | -16.06893 | 34090 ft | 437 kts | 349° |
| 2026-04-27 16:20 | 31.73434 | -16.09165 | 34085 ft | 437 kts | 349° |
| 2026-04-27 16:21 | 31.82418 | -16.10842 | 34088 ft | 437 kts | 349° |
| 2026-04-27 16:22 | 31.94442 | -16.13111 | 34090 ft | 437 kts | 349° |
| 2026-04-27 16:22 | 32.03464 | -16.14822 | 34091 ft | 438 kts | 349° |
| 2026-04-27 16:23 | 32.12496 | -16.16539 | 34094 ft | 438 kts | 349° |
| 2026-04-27 16:24 | 32.18513 | -16.17683 | 34092 ft | 438 kts | 349° |
| 2026-04-27 16:25 | 32.30511 | -16.19964 | 34094 ft | 438 kts | 349° |
| 2026-04-27 16:26 | 32.42560 | -16.22266 | 34099 ft | 439 kts | 349° |
| 2026-04-27 16:27 | 32.54620 | -16.24578 | 34098 ft | 439 kts | 349° |
| 2026-04-27 16:28 | 32.69656 | -16.27454 | 34099 ft | 439 kts | 349° |
| 2026-04-27 16:29 | 32.84750 | -16.30360 | 34107 ft | 439 kts | 349° |
| 2026-04-27 16:30 | 32.96833 | -16.32703 | 34112 ft | 440 kts | 350° |
| 2026-04-27 16:31 | 33.11947 | -16.34937 | 34113 ft | 441 kts | 1° |
| 2026-04-27 16:32 | 33.21158 | -16.34508 | 34111 ft | 442 kts | 1° |
| 2026-04-27 16:33 | 33.27303 | -16.34216 | 34239 ft | 442 kts | 1° |
| 2026-04-27 16:33 | 33.30376 | -16.34071 | 34428 ft | 442 kts | 1° |
| 2026-04-27 16:33 | 33.33447 | -16.33929 | 34597 ft | 441 kts | 1° |
| 2026-04-27 16:33 | 33.36518 | -16.33788 | 34762 ft | 442 kts | 1° |
| 2026-04-27 16:34 | 33.39589 | -16.33647 | 34909 ft | 442 kts | 1° |
| 2026-04-27 16:34 | 33.42661 | -16.33504 | 35075 ft | 442 kts | 1° |
| 2026-04-27 16:34 | 33.45727 | -16.33359 | 35231 ft | 441 kts | 1° |
| 2026-04-27 16:34 | 33.48796 | -16.33213 | 35369 ft | 442 kts | 1° |
| 2026-04-27 16:35 | 33.51867 | -16.33065 | 35500 ft | 442 kts | 1° |
| 2026-04-27 16:35 | 33.54945 | -16.32917 | 35638 ft | 442 kts | 1° |
| 2026-04-27 16:35 | 33.61048 | -16.32631 | 35904 ft | 442 kts | 1° |
| 2026-04-27 16:36 | 33.64120 | -16.32493 | 36032 ft | 442 kts | 0° |
| 2026-04-27 16:36 | 33.67195 | -16.32357 | 36158 ft | 442 kts | 1° |
| 2026-04-27 16:36 | 33.70265 | -16.32217 | 36287 ft | 442 kts | 1° |
| 2026-04-27 16:36 | 33.73338 | -16.32074 | 36413 ft | 442 kts | 1° |
| 2026-04-27 16:37 | 33.76408 | -16.31929 | 36541 ft | 441 kts | 1° |
| 2026-04-27 16:37 | 33.79480 | -16.31781 | 36671 ft | 441 kts | 1° |
| 2026-04-27 16:37 | 33.82547 | -16.31630 | 36802 ft | 441 kts | 1° |
| 2026-04-27 16:37 | 33.85605 | -16.31477 | 36932 ft | 440 kts | 1° |
| 2026-04-27 16:38 | 33.88665 | -16.31327 | 37084 ft | 439 kts | 1° |
| 2026-04-27 16:38 | 33.94802 | -16.31037 | 37113 ft | 444 kts | 1° |
| 2026-04-27 16:39 | 34.00984 | -16.30749 | 37115 ft | 445 kts | 1° |
| 2026-04-27 16:39 | 34.07187 | -16.30460 | 37117 ft | 446 kts | 1° |
| 2026-04-27 16:40 | 34.13389 | -16.30158 | 37109 ft | 447 kts | 1° |
| 2026-04-27 16:40 | 34.19605 | -16.29854 | 37111 ft | 447 kts | 1° |
| 2026-04-27 16:41 | 34.25787 | -16.29566 | 37112 ft | 448 kts | 1° |
| 2026-04-27 16:41 | 34.32010 | -16.29275 | 37113 ft | 448 kts | 1° |
| 2026-04-27 16:42 | 34.38244 | -16.28973 | 37113 ft | 448 kts | 1° |
| 2026-04-27 16:42 | 34.44478 | -16.28675 | 37112 ft | 448 kts | 1° |
| 2026-04-27 16:43 | 34.50721 | -16.28370 | 37114 ft | 449 kts | 1° |
| 2026-04-27 16:43 | 34.55912 | -16.28122 | 37114 ft | 449 kts | 1° |
| 2026-04-27 16:44 | 34.62174 | -16.27822 | 37115 ft | 450 kts | 2° |
| 2026-04-27 16:44 | 34.68440 | -16.27513 | 37114 ft | 450 kts | 2° |
| 2026-04-27 16:45 | 34.74712 | -16.27211 | 37114 ft | 451 kts | 2° |
| 2026-04-27 16:45 | 34.80996 | -16.26908 | 37116 ft | 451 kts | 2° |
| 2026-04-27 16:46 | 34.87237 | -16.26618 | 37116 ft | 452 kts | 2° |
| 2026-04-27 16:46 | 34.93529 | -16.26304 | 37120 ft | 452 kts | 2° |
| 2026-04-27 16:47 | 34.99828 | -16.25993 | 37116 ft | 453 kts | 2° |
| 2026-04-27 16:47 | 35.06134 | -16.25688 | 37116 ft | 453 kts | 2° |
| 2026-04-27 16:48 | 35.12436 | -16.25385 | 37120 ft | 454 kts | 2° |
| 2026-04-27 16:48 | 35.18754 | -16.25080 | 37121 ft | 454 kts | 2° |
| 2026-04-27 16:49 | 35.28194 | -16.24611 | 37120 ft | 455 kts | 2° |
| 2026-04-27 16:49 | 35.34518 | -16.24294 | 37121 ft | 455 kts | 3° |
| 2026-04-27 16:50 | 35.40848 | -16.23990 | 37122 ft | 455 kts | 3° |
| 2026-04-27 16:50 | 35.47188 | -16.23695 | 37119 ft | 455 kts | 2° |
| 2026-04-27 16:51 | 35.53465 | -16.24612 | 37122 ft | 457 kts | 343° |
| 2026-04-27 16:51 | 35.59316 | -16.27630 | 37123 ft | 457 kts | 335° |
| 2026-04-27 16:52 | 35.65081 | -16.30981 | 37123 ft | 458 kts | 335° |
| 2026-04-27 16:52 | 35.70842 | -16.34325 | 37124 ft | 458 kts | 335° |
| 2026-04-27 16:53 | 35.76614 | -16.37669 | 37124 ft | 458 kts | 335° |
| 2026-04-27 16:53 | 35.82349 | -16.41002 | 37129 ft | 458 kts | 335° |
| 2026-04-27 16:54 | 35.88118 | -16.44368 | 37132 ft | 459 kts | 335° |
| 2026-04-27 16:54 | 35.93889 | -16.47732 | 37131 ft | 458 kts | 335° |
| 2026-04-27 16:55 | 35.99653 | -16.51106 | 37134 ft | 458 kts | 335° |
| 2026-04-27 16:55 | 36.05416 | -16.54482 | 37135 ft | 459 kts | 335° |
| 2026-04-27 16:56 | 36.11155 | -16.57850 | 37136 ft | 459 kts | 335° |
| 2026-04-27 16:56 | 36.16915 | -16.61240 | 37136 ft | 458 kts | 335° |
| 2026-04-27 16:57 | 36.22678 | -16.64637 | 37137 ft | 459 kts | 335° |
| 2026-04-27 16:57 | 36.28442 | -16.68035 | 37138 ft | 459 kts | 335° |
| 2026-04-27 16:58 | 36.34206 | -16.71445 | 37138 ft | 459 kts | 335° |
| 2026-04-27 16:58 | 36.39971 | -16.74853 | 37142 ft | 459 kts | 335° |
| 2026-04-27 16:59 | 36.45745 | -16.78271 | 37144 ft | 459 kts | 335° |
| 2026-04-27 16:59 | 36.51503 | -16.81685 | 37145 ft | 459 kts | 335° |
| 2026-04-27 17:00 | 36.60131 | -16.86815 | 37152 ft | 458 kts | 335° |
| 2026-04-27 17:01 | 36.65879 | -16.90240 | 37152 ft | 458 kts | 335° |
| 2026-04-27 17:01 | 36.71632 | -16.93671 | 37149 ft | 458 kts | 335° |
| 2026-04-27 17:02 | 36.77381 | -16.97117 | 37152 ft | 458 kts | 335° |
| 2026-04-27 17:02 | 36.83089 | -17.00544 | 37154 ft | 458 kts | 334° |
| 2026-04-27 17:03 | 36.88833 | -17.03990 | 37151 ft | 458 kts | 335° |
| 2026-04-27 17:03 | 36.94566 | -17.07431 | 37156 ft | 457 kts | 334° |
| 2026-04-27 17:04 | 37.00303 | -17.10885 | 37159 ft | 457 kts | 334° |
| 2026-04-27 17:04 | 37.06032 | -17.14343 | 37161 ft | 457 kts | 334° |
| 2026-04-27 17:05 | 37.11755 | -17.17800 | 37159 ft | 456 kts | 334° |
| 2026-04-27 17:05 | 37.17483 | -17.21268 | 37164 ft | 456 kts | 334° |
| 2026-04-27 17:06 | 37.23149 | -17.24704 | 37169 ft | 455 kts | 334° |
| 2026-04-27 17:06 | 37.28839 | -17.28153 | 37163 ft | 454 kts | 334° |
| 2026-04-27 17:07 | 37.34533 | -17.31608 | 37169 ft | 453 kts | 334° |
| 2026-04-27 17:07 | 37.40206 | -17.35066 | 37166 ft | 453 kts | 334° |
| 2026-04-27 17:08 | 37.45877 | -17.38524 | 37171 ft | 452 kts | 334° |
| 2026-04-27 17:08 | 37.51537 | -17.41984 | 37173 ft | 452 kts | 334° |
| 2026-04-27 17:09 | 37.57195 | -17.45456 | 37174 ft | 451 kts | 334° |
| 2026-04-27 17:09 | 37.62808 | -17.48898 | 37176 ft | 451 kts | 334° |
| 2026-04-27 17:10 | 37.68447 | -17.52359 | 37175 ft | 450 kts | 334° |
| 2026-04-27 17:10 | 37.74080 | -17.55823 | 37178 ft | 450 kts | 334° |
| 2026-04-27 17:11 | 37.79707 | -17.59298 | 37178 ft | 449 kts | 334° |
| 2026-04-27 17:11 | 37.88124 | -17.64500 | 37178 ft | 448 kts | 334° |
| 2026-04-27 17:12 | 37.96517 | -17.69696 | 37186 ft | 447 kts | 334° |
| 2026-04-27 17:13 | 38.02079 | -17.73139 | 37190 ft | 447 kts | 334° |
| 2026-04-27 17:13 | 38.07671 | -17.76611 | 37188 ft | 446 kts | 334° |
| 2026-04-27 17:14 | 38.13242 | -17.80084 | 37189 ft | 445 kts | 333° |
| 2026-04-27 17:14 | 38.18805 | -17.83563 | 37189 ft | 445 kts | 334° |
| 2026-04-27 17:15 | 38.24361 | -17.87037 | 37190 ft | 445 kts | 334° |
| 2026-04-27 17:15 | 38.29908 | -17.90510 | 37194 ft | 445 kts | 333° |
| 2026-04-27 17:16 | 38.35421 | -17.93963 | 37192 ft | 444 kts | 333° |
| 2026-04-27 17:16 | 38.40957 | -17.97436 | 37193 ft | 443 kts | 333° |
| 2026-04-27 17:17 | 38.46477 | -18.00910 | 37194 ft | 442 kts | 333° |
| 2026-04-27 17:17 | 38.51992 | -18.04382 | 37197 ft | 441 kts | 333° |
| 2026-04-27 17:18 | 38.60241 | -18.09594 | 37203 ft | 441 kts | 333° |
| 2026-04-27 17:18 | 38.65730 | -18.13072 | 37202 ft | 440 kts | 333° |
| 2026-04-27 17:19 | 38.71214 | -18.16552 | 37202 ft | 439 kts | 333° |
| 2026-04-27 17:19 | 38.76695 | -18.20030 | 37202 ft | 439 kts | 333° |
| 2026-04-27 17:20 | 38.82169 | -18.23508 | 37204 ft | 439 kts | 333° |
| 2026-04-27 17:20 | 38.87600 | -18.26979 | 37202 ft | 439 kts | 333° |
| 2026-04-27 17:21 | 38.93061 | -18.30470 | 37203 ft | 439 kts | 333° |
| 2026-04-27 17:21 | 38.98527 | -18.33964 | 37205 ft | 439 kts | 333° |
| 2026-04-27 17:22 | 39.03994 | -18.37466 | 37208 ft | 439 kts | 333° |
| 2026-04-27 17:22 | 39.09452 | -18.40975 | 37207 ft | 439 kts | 333° |
| 2026-04-27 17:23 | 39.14914 | -18.44490 | 37207 ft | 439 kts | 333° |
| 2026-04-27 17:23 | 39.20376 | -18.47998 | 37210 ft | 438 kts | 333° |
| 2026-04-27 17:24 | 39.25828 | -18.51512 | 37206 ft | 438 kts | 333° |
| 2026-04-27 17:24 | 39.31282 | -18.55042 | 37212 ft | 438 kts | 333° |
| 2026-04-27 17:25 | 39.36723 | -18.58565 | 37215 ft | 437 kts | 333° |
| 2026-04-27 17:25 | 39.42137 | -18.62079 | 37211 ft | 428 kts | 334° |
| 2026-04-27 17:26 | 39.47368 | -18.65469 | 37215 ft | 420 kts | 334° |
| 2026-04-27 17:26 | 39.52573 | -18.68859 | 37218 ft | 418 kts | 333° |
| 2026-04-27 17:27 | 39.57771 | -18.72250 | 37217 ft | 418 kts | 333° |
| 2026-04-27 17:27 | 39.62956 | -18.75639 | 37219 ft | 417 kts | 334° |
| 2026-04-27 17:28 | 39.68151 | -18.79033 | 37220 ft | 417 kts | 334° |
| 2026-04-27 17:29 | 39.75916 | -18.84118 | 37215 ft | 416 kts | 334° |
| 2026-04-27 17:29 | 39.81062 | -18.87496 | 37219 ft | 416 kts | 334° |
| 2026-04-27 17:30 | 39.86234 | -18.90892 | 37223 ft | 416 kts | 333° |
| 2026-04-27 17:30 | 39.93977 | -18.96011 | 37220 ft | 416 kts | 333° |
| 2026-04-27 17:31 | 39.99250 | -18.99091 | 37223 ft | 415 kts | 344° |
| 2026-04-27 17:31 | 40.04971 | -18.99998 | 37226 ft | 417 kts | 359° |
| 2026-04-27 17:32 | 40.12693 | -18.99984 | 37226 ft | 417 kts | 358° |
| 2026-04-27 17:33 | 40.18493 | -18.99997 | 37225 ft | 417 kts | 359° |
| 2026-04-27 17:33 | 40.25233 | -18.99995 | 37227 ft | 417 kts | 359° |
| 2026-04-27 17:34 | 40.30092 | -18.99988 | 37226 ft | 417 kts | 359° |
| 2026-04-27 17:34 | 40.35886 | -18.99992 | 37228 ft | 417 kts | 359° |
| 2026-04-27 17:35 | 40.41645 | -18.99991 | 37231 ft | 416 kts | 359° |
| 2026-04-27 17:35 | 40.47442 | -18.99990 | 37231 ft | 416 kts | 359° |
| 2026-04-27 17:36 | 40.53234 | -18.99992 | 37228 ft | 416 kts | 359° |
| 2026-04-27 17:36 | 40.59024 | -18.99994 | 37228 ft | 416 kts | 359° |
| 2026-04-27 17:37 | 40.64816 | -18.99996 | 37230 ft | 416 kts | 359° |
| 2026-04-27 17:37 | 40.70603 | -18.99998 | 37231 ft | 416 kts | 359° |
| 2026-04-27 17:38 | 40.76393 | -18.99996 | 37229 ft | 416 kts | 359° |
| 2026-04-27 17:38 | 40.82148 | -18.99990 | 37233 ft | 416 kts | 359° |
| 2026-04-27 17:39 | 40.87928 | -18.99992 | 37234 ft | 416 kts | 359° |
| 2026-04-27 17:39 | 40.93712 | -18.99996 | 37234 ft | 415 kts | 359° |
| 2026-04-27 17:40 | 40.99491 | -18.99990 | 37236 ft | 415 kts | 359° |
| 2026-04-27 17:40 | 41.05270 | -18.99988 | 37236 ft | 415 kts | 358° |
| 2026-04-27 17:41 | 41.11046 | -18.99988 | 37237 ft | 415 kts | 359° |
| 2026-04-27 17:41 | 41.16819 | -18.99992 | 37237 ft | 415 kts | 359° |
| 2026-04-27 17:42 | 41.22596 | -18.99997 | 37235 ft | 415 kts | 358° |
| 2026-04-27 17:42 | 41.28372 | -19.00000 | 37235 ft | 415 kts | 359° |
| 2026-04-27 17:43 | 41.34109 | -18.99995 | 37238 ft | 415 kts | 359° |
| 2026-04-27 17:43 | 41.39880 | -18.99987 | 37245 ft | 415 kts | 359° |
| 2026-04-27 17:44 | 41.45648 | -18.99990 | 37243 ft | 414 kts | 358° |
| 2026-04-27 17:44 | 41.51415 | -19.00004 | 37245 ft | 414 kts | 358° |
| 2026-04-27 17:45 | 41.57187 | -19.00002 | 37242 ft | 414 kts | 359° |
| 2026-04-27 17:45 | 41.62951 | -18.99988 | 37243 ft | 414 kts | 359° |
| 2026-04-27 17:46 | 41.68705 | -18.99987 | 37245 ft | 414 kts | 358° |
| 2026-04-27 17:46 | 41.74467 | -18.99998 | 37243 ft | 414 kts | 358° |
| 2026-04-27 17:47 | 41.80227 | -18.99994 | 37247 ft | 414 kts | 358° |
| 2026-04-27 17:47 | 41.85946 | -18.99998 | 37246 ft | 413 kts | 359° |
| 2026-04-27 17:48 | 41.91705 | -18.99996 | 37245 ft | 413 kts | 358° |
| 2026-04-27 17:48 | 41.97453 | -19.00001 | 37249 ft | 413 kts | 358° |
| 2026-04-27 17:49 | 42.03209 | -18.99997 | 37248 ft | 413 kts | 358° |
| 2026-04-27 17:49 | 42.08960 | -18.99992 | 37250 ft | 413 kts | 358° |
| 2026-04-27 17:50 | 42.14711 | -18.99997 | 37251 ft | 413 kts | 358° |
| 2026-04-27 17:50 | 42.23335 | -18.99994 | 37250 ft | 413 kts | 358° |
| 2026-04-27 17:51 | 42.29085 | -18.99995 | 37254 ft | 413 kts | 358° |
| 2026-04-27 17:51 | 42.34796 | -18.99999 | 37255 ft | 413 kts | 358° |
| 2026-04-27 17:52 | 42.40540 | -18.99994 | 37252 ft | 413 kts | 358° |
| 2026-04-27 17:52 | 42.46290 | -18.99986 | 37255 ft | 413 kts | 358° |
| 2026-04-27 17:53 | 42.52036 | -18.99990 | 37259 ft | 413 kts | 358° |
| 2026-04-27 17:53 | 42.57781 | -18.99998 | 37258 ft | 413 kts | 358° |
| 2026-04-27 17:54 | 42.63523 | -18.99998 | 37262 ft | 413 kts | 358° |
| 2026-04-27 17:54 | 42.69274 | -18.99992 | 37262 ft | 413 kts | 358° |
| 2026-04-27 17:55 | 42.75017 | -18.99989 | 37261 ft | 413 kts | 358° |
| 2026-04-27 17:55 | 42.80765 | -19.00001 | 37263 ft | 413 kts | 358° |
| 2026-04-27 17:56 | 42.86474 | -18.99999 | 37263 ft | 413 kts | 358° |
| 2026-04-27 17:56 | 42.92221 | -18.99997 | 37266 ft | 413 kts | 358° |
| 2026-04-27 17:57 | 42.97968 | -18.99995 | 37264 ft | 413 kts | 358° |
| 2026-04-27 17:57 | 43.03711 | -18.99997 | 37264 ft | 413 kts | 358° |
| 2026-04-27 17:58 | 43.09455 | -18.99995 | 37267 ft | 413 kts | 358° |
| 2026-04-27 17:58 | 43.15194 | -18.99986 | 37271 ft | 412 kts | 358° |
| 2026-04-27 17:59 | 43.20934 | -18.99980 | 37268 ft | 412 kts | 358° |
| 2026-04-27 17:59 | 43.26672 | -18.99979 | 37269 ft | 412 kts | 358° |
| 2026-04-27 18:00 | 43.32381 | -18.99993 | 37267 ft | 415 kts | 358° |
| 2026-04-27 18:00 | 43.38188 | -19.00007 | 37274 ft | 420 kts | 358° |
| 2026-04-27 18:01 | 43.44059 | -19.00004 | 37273 ft | 423 kts | 358° |
| 2026-04-27 18:01 | 43.49966 | -19.00003 | 37273 ft | 425 kts | 358° |
| 2026-04-27 18:02 | 43.55882 | -18.99999 | 37274 ft | 425 kts | 358° |
| 2026-04-27 18:02 | 43.61805 | -18.99993 | 37277 ft | 426 kts | 358° |
| 2026-04-27 18:03 | 43.67727 | -18.99993 | 37277 ft | 425 kts | 358° |
| 2026-04-27 18:03 | 43.73651 | -19.00000 | 37272 ft | 426 kts | 358° |
| 2026-04-27 18:04 | 43.79530 | -19.00000 | 37273 ft | 426 kts | 358° |
| 2026-04-27 18:04 | 43.85461 | -18.99993 | 37277 ft | 426 kts | 358° |
| 2026-04-27 18:05 | 43.91392 | -18.99989 | 37277 ft | 426 kts | 358° |
| 2026-04-27 18:05 | 43.97327 | -19.00002 | 37278 ft | 426 kts | 358° |
| 2026-04-27 18:06 | 44.03261 | -18.99997 | 37277 ft | 427 kts | 358° |
| 2026-04-27 18:06 | 44.09200 | -19.00001 | 37281 ft | 427 kts | 358° |
| 2026-04-27 18:07 | 44.15132 | -19.00009 | 37280 ft | 427 kts | 358° |
| 2026-04-27 18:07 | 44.21077 | -19.00002 | 37284 ft | 427 kts | 359° |
| 2026-04-27 18:08 | 44.26982 | -18.99991 | 37286 ft | 427 kts | 359° |
| 2026-04-27 18:08 | 44.32927 | -18.99981 | 37281 ft | 427 kts | 359° |
| 2026-04-27 18:09 | 44.38862 | -18.99980 | 37280 ft | 427 kts | 358° |
| 2026-04-27 18:09 | 44.44807 | -18.99990 | 37286 ft | 427 kts | 358° |
| 2026-04-27 18:10 | 44.50753 | -18.99992 | 37285 ft | 427 kts | 358° |
| 2026-04-27 18:10 | 44.56664 | -18.99996 | 37285 ft | 428 kts | 359° |
| 2026-04-27 18:11 | 44.62651 | -18.99997 | 37284 ft | 428 kts | 358° |
| 2026-04-27 18:11 | 44.68572 | -18.99996 | 37286 ft | 428 kts | 359° |
| 2026-04-27 18:12 | 44.74532 | -18.99991 | 37289 ft | 428 kts | 359° |
| 2026-04-27 18:12 | 44.80496 | -18.99994 | 37287 ft | 429 kts | 359° |
| 2026-04-27 18:13 | 44.86469 | -18.99983 | 37290 ft | 429 kts | 359° |
| 2026-04-27 18:13 | 44.92440 | -18.99984 | 37288 ft | 429 kts | 359° |
| 2026-04-27 18:14 | 44.98414 | -18.99991 | 37293 ft | 429 kts | 359° |
| 2026-04-27 18:14 | 45.04392 | -18.99997 | 37293 ft | 430 kts | 359° |
| 2026-04-27 18:15 | 45.10380 | -18.99998 | 37293 ft | 430 kts | 359° |
| 2026-04-27 18:15 | 45.16374 | -18.99993 | 37294 ft | 431 kts | 359° |
| 2026-04-27 18:16 | 45.22326 | -18.99993 | 37296 ft | 431 kts | 359° |
| 2026-04-27 18:16 | 45.28335 | -18.99994 | 37295 ft | 432 kts | 359° |
| 2026-04-27 18:17 | 45.34344 | -18.99996 | 37297 ft | 432 kts | 359° |
| 2026-04-27 18:17 | 45.40360 | -18.99998 | 37294 ft | 432 kts | 359° |
| 2026-04-27 18:18 | 45.46385 | -18.99996 | 37299 ft | 433 kts | 359° |
| 2026-04-27 18:18 | 45.52411 | -18.99983 | 37296 ft | 433 kts | 359° |
| 2026-04-27 18:19 | 45.58410 | -18.99976 | 37300 ft | 434 kts | 359° |
| 2026-04-27 18:19 | 45.64448 | -18.99989 | 37299 ft | 434 kts | 359° |
| 2026-04-27 18:20 | 45.70489 | -18.99999 | 37299 ft | 434 kts | 359° |
| 2026-04-27 18:20 | 45.76536 | -19.00000 | 37304 ft | 435 kts | 359° |
| 2026-04-27 18:21 | 45.82592 | -19.00004 | 37301 ft | 435 kts | 359° |
| 2026-04-27 18:21 | 45.88657 | -19.00005 | 37303 ft | 436 kts | 359° |
| 2026-04-27 18:22 | 45.94725 | -19.00007 | 37304 ft | 436 kts | 359° |
| 2026-04-27 18:22 | 46.00800 | -19.00000 | 37304 ft | 437 kts | 359° |
| 2026-04-27 18:23 | 46.06884 | -18.99990 | 37307 ft | 437 kts | 359° |
| 2026-04-27 18:23 | 46.12973 | -18.99988 | 37307 ft | 438 kts | 359° |
| 2026-04-27 18:24 | 46.19065 | -18.99993 | 37308 ft | 438 kts | 359° |
| 2026-04-27 18:24 | 46.25129 | -18.99998 | 37310 ft | 438 kts | 359° |
| 2026-04-27 18:25 | 46.31230 | -18.99996 | 37312 ft | 439 kts | 359° |
| 2026-04-27 18:25 | 46.37338 | -18.99993 | 37309 ft | 439 kts | 359° |
| 2026-04-27 18:26 | 46.43446 | -18.99995 | 37311 ft | 439 kts | 359° |
| 2026-04-27 18:26 | 46.48534 | -18.99992 | 37312 ft | 440 kts | 359° |
| 2026-04-27 18:27 | 46.54655 | -18.99991 | 37311 ft | 440 kts | 359° |
| 2026-04-27 18:27 | 46.60780 | -18.99994 | 37312 ft | 440 kts | 359° |
| 2026-04-27 18:28 | 46.66919 | -18.99993 | 37311 ft | 441 kts | 359° |
| 2026-04-27 18:28 | 46.73053 | -18.99991 | 37314 ft | 441 kts | 359° |
| 2026-04-27 18:29 | 46.79159 | -18.99983 | 37313 ft | 442 kts | 359° |
| 2026-04-27 18:29 | 46.85347 | -18.99992 | 37314 ft | 442 kts | 359° |
| 2026-04-27 18:30 | 46.91503 | -19.00000 | 37313 ft | 442 kts | 359° |
| 2026-04-27 18:30 | 46.97615 | -18.99998 | 37316 ft | 443 kts | 359° |
| 2026-04-27 18:31 | 47.03773 | -19.00000 | 37318 ft | 443 kts | 359° |
| 2026-04-27 18:31 | 47.09941 | -18.99996 | 37318 ft | 443 kts | 359° |
| 2026-04-27 18:32 | 47.16116 | -18.99998 | 37320 ft | 444 kts | 359° |
| 2026-04-27 18:32 | 47.22294 | -18.99989 | 37319 ft | 444 kts | 359° |
| 2026-04-27 18:33 | 47.28484 | -18.99986 | 37324 ft | 444 kts | 359° |
| 2026-04-27 18:33 | 47.34669 | -18.99988 | 37324 ft | 445 kts | 359° |
| 2026-04-27 18:34 | 47.40850 | -18.99990 | 37326 ft | 445 kts | 359° |
| 2026-04-27 18:34 | 47.47043 | -18.99988 | 37326 ft | 445 kts | 359° |
| 2026-04-27 18:35 | 47.53224 | -18.99994 | 37327 ft | 445 kts | 359° |
| 2026-04-27 18:35 | 47.59430 | -18.99998 | 37325 ft | 445 kts | 359° |
| 2026-04-27 18:36 | 47.65622 | -19.00001 | 37325 ft | 446 kts | 359° |
| 2026-04-27 18:36 | 47.71787 | -18.99994 | 37329 ft | 446 kts | 359° |
| 2026-04-27 18:37 | 47.77992 | -19.00000 | 37326 ft | 446 kts | 359° |
| 2026-04-27 18:37 | 47.84195 | -19.00000 | 37328 ft | 446 kts | 359° |
| 2026-04-27 18:38 | 47.90407 | -18.99997 | 37327 ft | 446 kts | 359° |
| 2026-04-27 18:38 | 47.96628 | -19.00005 | 37326 ft | 447 kts | 359° |
| 2026-04-27 18:39 | 48.02849 | -19.00000 | 37331 ft | 447 kts | 359° |
| 2026-04-27 18:39 | 48.09059 | -18.99992 | 37331 ft | 447 kts | 359° |
| 2026-04-27 18:40 | 48.15284 | -18.99986 | 37336 ft | 447 kts | 359° |
| 2026-04-27 18:40 | 48.21468 | -18.99990 | 37336 ft | 448 kts | 359° |
| 2026-04-27 18:41 | 48.27696 | -18.99994 | 37335 ft | 448 kts | 359° |
| 2026-04-27 18:41 | 48.33927 | -18.99998 | 37337 ft | 448 kts | 359° |
| 2026-04-27 18:42 | 48.39143 | -18.99990 | 37333 ft | 448 kts | 359° |
| 2026-04-27 18:42 | 48.46396 | -18.99993 | 37340 ft | 448 kts | 359° |
| 2026-04-27 18:43 | 48.52621 | -18.99996 | 37339 ft | 448 kts | 359° |
| 2026-04-27 18:43 | 48.58875 | -18.99988 | 37341 ft | 449 kts | 359° |
| 2026-04-27 18:44 | 48.65124 | -18.99991 | 37340 ft | 449 kts | 359° |
| 2026-04-27 18:44 | 48.71370 | -18.99993 | 37341 ft | 450 kts | 359° |
| 2026-04-27 18:45 | 48.77590 | -18.99990 | 37341 ft | 450 kts | 359° |
| 2026-04-27 18:45 | 48.83850 | -18.99992 | 37340 ft | 450 kts | 359° |
| 2026-04-27 18:46 | 48.90129 | -18.99984 | 37341 ft | 451 kts | 359° |
| 2026-04-27 18:46 | 48.96398 | -18.99986 | 37338 ft | 451 kts | 359° |
| 2026-04-27 18:47 | 49.02678 | -18.99990 | 37342 ft | 451 kts | 359° |
| 2026-04-27 18:47 | 49.08960 | -18.99984 | 37342 ft | 452 kts | 359° |
| 2026-04-27 18:48 | 49.15258 | -18.99988 | 37343 ft | 452 kts | 359° |
| 2026-04-27 18:48 | 49.21552 | -18.99993 | 37345 ft | 453 kts | 359° |
| 2026-04-27 18:49 | 49.27860 | -19.00009 | 37343 ft | 453 kts | 359° |
| 2026-04-27 18:49 | 49.34167 | -19.00012 | 37347 ft | 454 kts | 359° |
| 2026-04-27 18:50 | 49.40492 | -19.00002 | 37349 ft | 454 kts | 359° |
| 2026-04-27 18:50 | 49.46765 | -18.99986 | 37347 ft | 455 kts | 359° |
| 2026-04-27 18:51 | 49.53099 | -18.99989 | 37349 ft | 455 kts | 359° |
| 2026-04-27 18:51 | 49.59441 | -18.99997 | 37346 ft | 455 kts | 359° |
| 2026-04-27 18:52 | 49.65774 | -18.99992 | 37348 ft | 456 kts | 359° |
| 2026-04-27 18:53 | 49.75307 | -18.99992 | 37347 ft | 456 kts | 359° |
| 2026-04-27 18:53 | 49.81652 | -18.99993 | 37350 ft | 457 kts | 359° |
| 2026-04-27 18:54 | 49.88013 | -18.99993 | 37351 ft | 457 kts | 359° |
| 2026-04-27 18:54 | 49.94376 | -18.99988 | 37349 ft | 458 kts | 359° |
| 2026-04-27 18:55 | 50.00753 | -18.99982 | 37351 ft | 458 kts | 359° |
| 2026-04-27 18:55 | 50.07123 | -18.99988 | 37350 ft | 458 kts | 359° |
| 2026-04-27 18:56 | 50.13510 | -18.99993 | 37351 ft | 459 kts | 359° |
| 2026-04-27 18:56 | 50.19854 | -18.99992 | 37349 ft | 459 kts | 359° |
| 2026-04-27 18:57 | 50.26243 | -18.99990 | 37350 ft | 459 kts | 359° |
| 2026-04-27 18:57 | 50.32638 | -18.99995 | 37350 ft | 459 kts | 359° |
| 2026-04-27 18:58 | 50.39031 | -18.99995 | 37354 ft | 460 kts | 359° |
| 2026-04-27 18:58 | 50.45428 | -18.99990 | 37353 ft | 460 kts | 359° |
| 2026-04-27 18:59 | 50.51797 | -18.99991 | 37353 ft | 461 kts | 359° |
| 2026-04-27 18:59 | 50.58244 | -19.00007 | 37352 ft | 461 kts | 359° |
| 2026-04-27 19:00 | 50.64663 | -19.00014 | 37350 ft | 461 kts | 359° |
| 2026-04-27 19:00 | 50.71034 | -19.00008 | 37355 ft | 461 kts | 359° |
| 2026-04-27 19:01 | 50.77455 | -19.00005 | 37352 ft | 462 kts | 359° |
| 2026-04-27 19:01 | 50.83888 | -19.00006 | 37352 ft | 462 kts | 359° |
| 2026-04-27 19:02 | 50.90325 | -18.99999 | 37354 ft | 463 kts | 359° |
| 2026-04-27 19:02 | 50.96757 | -18.99991 | 37354 ft | 463 kts | 359° |
| 2026-04-27 19:03 | 51.03214 | -18.99985 | 37355 ft | 463 kts | 359° |
| 2026-04-27 19:03 | 51.09655 | -18.99996 | 37358 ft | 463 kts | 359° |
| 2026-04-27 19:04 | 51.16100 | -18.99996 | 37356 ft | 463 kts | 359° |
| 2026-04-27 19:04 | 51.22541 | -18.99990 | 37355 ft | 463 kts | 359° |
| 2026-04-27 19:05 | 51.28997 | -18.99991 | 37354 ft | 464 kts | 359° |
| 2026-04-27 19:05 | 51.35457 | -18.99986 | 37352 ft | 464 kts | 359° |
| 2026-04-27 19:06 | 51.41908 | -18.99988 | 37353 ft | 464 kts | 359° |
| 2026-04-27 19:06 | 51.48369 | -18.99986 | 37353 ft | 465 kts | 359° |
| 2026-04-27 19:07 | 51.54799 | -18.99997 | 37356 ft | 465 kts | 359° |
| 2026-04-27 19:07 | 51.61271 | -18.99996 | 37357 ft | 465 kts | 359° |
| 2026-04-27 19:08 | 51.67746 | -18.99995 | 37353 ft | 465 kts | 359° |
| 2026-04-27 19:08 | 51.74215 | -18.99999 | 37352 ft | 465 kts | 359° |
| 2026-04-27 19:09 | 51.80693 | -18.99998 | 37353 ft | 466 kts | 359° |
| 2026-04-27 19:09 | 51.87176 | -18.99992 | 37351 ft | 466 kts | 359° |
| 2026-04-27 19:10 | 51.93664 | -18.99988 | 37352 ft | 466 kts | 359° |
| 2026-04-27 19:10 | 52.00147 | -18.99991 | 37350 ft | 466 kts | 359° |
| 2026-04-27 19:11 | 52.06629 | -18.99984 | 37350 ft | 466 kts | 359° |
| 2026-04-27 19:11 | 52.13131 | -18.99988 | 37350 ft | 466 kts | 359° |
| 2026-04-27 19:12 | 52.19585 | -18.99982 | 37345 ft | 467 kts | 359° |
| 2026-04-27 19:12 | 52.26079 | -18.99990 | 37345 ft | 467 kts | 359° |
| 2026-04-27 19:13 | 52.32582 | -18.99988 | 37350 ft | 467 kts | 359° |
| 2026-04-27 19:13 | 52.39079 | -18.99986 | 37330 ft | 467 kts | 359° |
| 2026-04-27 19:14 | 52.45580 | -18.99985 | 37349 ft | 467 kts | 359° |
| 2026-04-27 19:14 | 52.52040 | -18.99992 | 37344 ft | 467 kts | 359° |
| 2026-04-27 19:15 | 52.58544 | -18.99997 | 37349 ft | 467 kts | 359° |
| 2026-04-27 19:15 | 52.65044 | -18.99994 | 37335 ft | 467 kts | 359° |
| 2026-04-27 19:16 | 52.71542 | -18.99994 | 37350 ft | 467 kts | 359° |
| 2026-04-27 19:16 | 52.78044 | -18.99988 | 37350 ft | 467 kts | 359° |
| 2026-04-27 19:17 | 52.84548 | -18.99985 | 37347 ft | 467 kts | 359° |
| 2026-04-27 19:17 | 52.91045 | -18.99993 | 37348 ft | 467 kts | 359° |
| 2026-04-27 19:18 | 52.97546 | -18.99999 | 37343 ft | 467 kts | 359° |
| 2026-04-27 19:18 | 53.04000 | -18.99991 | 37343 ft | 467 kts | 359° |
| 2026-04-27 19:19 | 53.10496 | -18.99991 | 37335 ft | 467 kts | 359° |
| 2026-04-27 19:19 | 53.17003 | -18.99993 | 37331 ft | 467 kts | 359° |
| 2026-04-27 19:20 | 53.23506 | -19.00002 | 37331 ft | 467 kts | 359° |
| 2026-04-27 19:20 | 53.28910 | -18.99994 | 37332 ft | 467 kts | 359° |
| 2026-04-27 19:21 | 53.35413 | -18.99982 | 37331 ft | 467 kts | 359° |
| 2026-04-27 19:21 | 53.41912 | -18.99986 | 37337 ft | 467 kts | 359° |
| 2026-04-27 19:22 | 53.48417 | -18.99995 | 37338 ft | 467 kts | 359° |
| 2026-04-27 19:22 | 53.54927 | -18.99995 | 37332 ft | 468 kts | 359° |
| 2026-04-27 19:23 | 53.61439 | -18.99991 | 37333 ft | 468 kts | 359° |
| 2026-04-27 19:23 | 53.67949 | -18.99996 | 37325 ft | 468 kts | 359° |
| 2026-04-27 19:24 | 53.74461 | -18.99995 | 37327 ft | 468 kts | 359° |
| 2026-04-27 19:24 | 53.80976 | -18.99991 | 37332 ft | 468 kts | 359° |
| 2026-04-27 19:25 | 53.87489 | -18.99985 | 37327 ft | 468 kts | 359° |
| 2026-04-27 19:25 | 53.93961 | -18.99991 | 37331 ft | 468 kts | 359° |
| 2026-04-27 19:26 | 54.00480 | -18.99987 | 37329 ft | 468 kts | 359° |
| 2026-04-27 19:26 | 54.06990 | -18.99987 | 37329 ft | 468 kts | 359° |
| 2026-04-27 19:27 | 54.13516 | -18.99984 | 37326 ft | 468 kts | 359° |
| 2026-04-27 19:27 | 54.20031 | -18.99981 | 37323 ft | 468 kts | 359° |
| 2026-04-27 19:28 | 54.26551 | -18.99996 | 37325 ft | 468 kts | 359° |
| 2026-04-27 19:28 | 54.33074 | -18.99997 | 37321 ft | 468 kts | 359° |
| 2026-04-27 19:29 | 54.39593 | -18.99994 | 37313 ft | 468 kts | 359° |
| 2026-04-27 19:29 | 54.46117 | -18.99987 | 37323 ft | 468 kts | 359° |
| 2026-04-27 19:30 | 54.52631 | -18.99992 | 37311 ft | 468 kts | 359° |
| 2026-04-27 19:30 | 54.59147 | -18.99995 | 37318 ft | 468 kts | 359° |
| 2026-04-27 19:31 | 54.65669 | -18.99987 | 37318 ft | 469 kts | 359° |
| 2026-04-27 19:31 | 54.72196 | -18.99983 | 37317 ft | 469 kts | 359° |
| 2026-04-27 19:32 | 54.78720 | -18.99991 | 37313 ft | 469 kts | 359° |
| 2026-04-27 19:32 | 54.85249 | -18.99990 | 37314 ft | 469 kts | 359° |
| 2026-04-27 19:33 | 54.91782 | -18.99985 | 37310 ft | 469 kts | 358° |
| 2026-04-27 19:33 | 54.98305 | -18.99994 | 37312 ft | 469 kts | 359° |
| 2026-04-27 19:34 | 55.04834 | -18.99991 | 37311 ft | 469 kts | 359° |
| 2026-04-27 19:34 | 55.11360 | -18.99981 | 37308 ft | 469 kts | 358° |
| 2026-04-27 19:35 | 55.17847 | -18.99995 | 37306 ft | 469 kts | 359° |
| 2026-04-27 19:35 | 55.24377 | -19.00010 | 37302 ft | 469 kts | 359° |
| 2026-04-27 19:36 | 55.30909 | -19.00004 | 37300 ft | 469 kts | 359° |
| 2026-04-27 19:36 | 55.37435 | -18.99991 | 37300 ft | 469 kts | 359° |
| 2026-04-27 19:37 | 55.43974 | -18.99994 | 37299 ft | 470 kts | 359° |
| 2026-04-27 19:37 | 55.50506 | -18.99975 | 37298 ft | 470 kts | 359° |
| 2026-04-27 19:38 | 55.57047 | -18.99980 | 37295 ft | 470 kts | 358° |
| 2026-04-27 19:38 | 55.63589 | -19.00003 | 37298 ft | 470 kts | 358° |
| 2026-04-27 19:39 | 55.70141 | -19.00006 | 37292 ft | 470 kts | 359° |
| 2026-04-27 19:39 | 55.76694 | -19.00001 | 37292 ft | 470 kts | 359° |
| 2026-04-27 19:40 | 55.83194 | -18.99985 | 37288 ft | 470 kts | 359° |
| 2026-04-27 19:40 | 55.89741 | -18.99983 | 37291 ft | 470 kts | 359° |
| 2026-04-27 19:41 | 55.96290 | -18.99994 | 37289 ft | 470 kts | 359° |
| 2026-04-27 19:41 | 56.02838 | -18.99993 | 37282 ft | 471 kts | 359° |
| 2026-04-27 19:42 | 56.09391 | -18.99995 | 37286 ft | 471 kts | 358° |
| 2026-04-27 19:42 | 56.15948 | -18.99994 | 37284 ft | 471 kts | 359° |
| 2026-04-27 19:43 | 56.22471 | -18.99987 | 37281 ft | 471 kts | 359° |
| 2026-04-27 19:43 | 56.29028 | -18.99979 | 37281 ft | 471 kts | 359° |
| 2026-04-27 19:44 | 56.35594 | -18.99985 | 37277 ft | 472 kts | 359° |
| 2026-04-27 19:44 | 56.42159 | -18.99994 | 37278 ft | 472 kts | 359° |
| 2026-04-27 19:45 | 56.48729 | -19.00000 | 37281 ft | 472 kts | 359° |
| 2026-04-27 19:45 | 56.55294 | -18.99986 | 37275 ft | 472 kts | 359° |
| 2026-04-27 19:46 | 56.61877 | -18.99996 | 37273 ft | 472 kts | 359° |
| 2026-04-27 19:46 | 56.68447 | -19.00001 | 37271 ft | 473 kts | 359° |
| 2026-04-27 19:47 | 56.75031 | -18.99993 | 37270 ft | 473 kts | 359° |
| 2026-04-27 19:47 | 56.81623 | -18.99992 | 37266 ft | 473 kts | 358° |
| 2026-04-27 19:48 | 56.88217 | -18.99993 | 37267 ft | 474 kts | 358° |
| 2026-04-27 19:48 | 56.94777 | -18.99987 | 37266 ft | 474 kts | 358° |
| 2026-04-27 19:49 | 57.01380 | -18.99967 | 37264 ft | 475 kts | 358° |
| 2026-04-27 19:49 | 57.07995 | -18.99965 | 37258 ft | 475 kts | 358° |
| 2026-04-27 19:50 | 57.14596 | -18.99975 | 37483 ft | 472 kts | 358° |
| 2026-04-27 19:50 | 57.17867 | -18.99979 | 37749 ft | 468 kts | 358° |
| 2026-04-27 19:50 | 57.21115 | -18.99981 | 38025 ft | 465 kts | 358° |
| 2026-04-27 19:50 | 57.24353 | -18.99981 | 38213 ft | 464 kts | 358° |
| 2026-04-27 19:51 | 57.27590 | -18.99981 | 38260 ft | 467 kts | 358° |
| 2026-04-27 19:51 | 57.34119 | -18.99987 | 38250 ft | 472 kts | 358° |
| 2026-04-27 19:52 | 57.40702 | -18.99995 | 38254 ft | 474 kts | 358° |
| 2026-04-27 19:52 | 57.47298 | -19.00002 | 38253 ft | 474 kts | 358° |
| 2026-04-27 19:53 | 57.57210 | -18.99996 | 38260 ft | 475 kts | 358° |
| 2026-04-27 19:53 | 57.63827 | -18.99989 | 38252 ft | 476 kts | 358° |
| 2026-04-27 19:54 | 57.70459 | -18.99992 | 38235 ft | 477 kts | 358° |
| 2026-04-27 19:54 | 57.77110 | -18.99987 | 38222 ft | 479 kts | 358° |
| 2026-04-27 19:55 | 57.83797 | -18.99995 | 38225 ft | 481 kts | 358° |
| 2026-04-27 19:55 | 57.90493 | -18.99997 | 38232 ft | 482 kts | 358° |
| 2026-04-27 19:56 | 57.97205 | -18.99989 | 38241 ft | 483 kts | 358° |
| 2026-04-27 19:56 | 58.03927 | -18.99997 | 38240 ft | 484 kts | 358° |
| 2026-04-27 19:57 | 58.10619 | -19.00009 | 38248 ft | 484 kts | 358° |
| 2026-04-27 19:57 | 58.17363 | -19.00009 | 38242 ft | 485 kts | 358° |
| 2026-04-27 19:58 | 58.24121 | -18.99997 | 38247 ft | 486 kts | 357° |
| 2026-04-27 19:58 | 58.30880 | -18.99994 | 38238 ft | 486 kts | 357° |
| 2026-04-27 19:59 | 58.37646 | -18.99992 | 38236 ft | 487 kts | 357° |
| 2026-04-27 19:59 | 58.44429 | -18.99990 | 38231 ft | 487 kts | 357° |
| 2026-04-27 20:00 | 58.51204 | -18.99986 | 38232 ft | 487 kts | 357° |
| 2026-04-27 20:00 | 58.57992 | -18.99981 | 38233 ft | 488 kts | 357° |
| 2026-04-27 20:01 | 58.64789 | -18.99980 | 38227 ft | 488 kts | 357° |
| 2026-04-27 20:01 | 58.71583 | -18.99983 | 38217 ft | 489 kts | 357° |
| 2026-04-27 20:02 | 58.78389 | -18.99998 | 38218 ft | 489 kts | 357° |
| 2026-04-27 20:02 | 58.85201 | -18.99987 | 38224 ft | 490 kts | 357° |
| 2026-04-27 20:03 | 58.92021 | -18.99980 | 38222 ft | 490 kts | 356° |
| 2026-04-27 20:03 | 58.98843 | -18.99985 | 38213 ft | 491 kts | 356° |
| 2026-04-27 20:04 | 59.05676 | -18.99987 | 38208 ft | 491 kts | 356° |
| 2026-04-27 20:04 | 59.11357 | -18.99987 | 38204 ft | 491 kts | 356° |
| 2026-04-27 20:05 | 59.18195 | -18.99989 | 38200 ft | 492 kts | 356° |
| 2026-04-27 20:05 | 59.25046 | -18.99983 | 38195 ft | 492 kts | 356° |
| 2026-04-27 20:06 | 59.31900 | -18.99984 | 38193 ft | 493 kts | 356° |
| 2026-04-27 20:06 | 59.38760 | -18.99999 | 38189 ft | 493 kts | 356° |
| 2026-04-27 20:07 | 59.45630 | -19.00015 | 38184 ft | 493 kts | 356° |
| 2026-04-27 20:07 | 59.52501 | -19.00012 | 38181 ft | 494 kts | 356° |
| 2026-04-27 20:08 | 59.59375 | -18.99988 | 38178 ft | 494 kts | 356° |
| 2026-04-27 20:08 | 59.66255 | -18.99969 | 38169 ft | 495 kts | 356° |
| 2026-04-27 20:09 | 59.73149 | -18.99979 | 38170 ft | 495 kts | 356° |
| 2026-04-27 20:09 | 59.80042 | -19.00000 | 38169 ft | 495 kts | 356° |
| 2026-04-27 20:10 | 59.86936 | -19.00003 | 38158 ft | 496 kts | 356° |
| 2026-04-27 20:10 | 59.93854 | -19.00004 | 38152 ft | 497 kts | 356° |
| 2026-04-27 20:11 | 60.00768 | -19.00009 | 38144 ft | 497 kts | 356° |
| 2026-04-27 20:11 | 60.07649 | -19.00014 | 38142 ft | 498 kts | 356° |
| 2026-04-27 20:12 | 60.14579 | -19.00015 | 38144 ft | 498 kts | 356° |
| 2026-04-27 20:12 | 60.21529 | -19.00012 | 38141 ft | 499 kts | 356° |
| 2026-04-27 20:13 | 60.28478 | -19.00002 | 38132 ft | 499 kts | 356° |
| 2026-04-27 20:13 | 60.35437 | -19.00009 | 38135 ft | 500 kts | 355° |
| 2026-04-27 20:14 | 60.42398 | -19.00011 | 38131 ft | 501 kts | 355° |
| 2026-04-27 20:14 | 60.49377 | -19.00000 | 38126 ft | 501 kts | 355° |
| 2026-04-27 20:15 | 60.56356 | -18.99995 | 38121 ft | 502 kts | 355° |
| 2026-04-27 20:15 | 60.63351 | -18.99990 | 38120 ft | 503 kts | 355° |
| 2026-04-27 20:16 | 60.70349 | -18.99984 | 38114 ft | 503 kts | 355° |
| 2026-04-27 20:16 | 60.77358 | -18.99999 | 38108 ft | 504 kts | 355° |
| 2026-04-27 20:17 | 60.84374 | -19.00011 | 38107 ft | 505 kts | 355° |
| 2026-04-27 20:17 | 60.91395 | -18.99998 | 38101 ft | 505 kts | 355° |
| 2026-04-27 20:18 | 60.98231 | -19.01901 | 38098 ft | 493 kts | 340° |
| 2026-04-27 20:18 | 61.05036 | -19.04400 | 38085 ft | 498 kts | 345° |
| 2026-04-27 20:19 | 61.11712 | -19.07515 | 38082 ft | 492 kts | 337° |
| 2026-04-27 20:19 | 61.18164 | -19.12111 | 38082 ft | 489 kts | 332° |
| 2026-04-27 20:20 | 61.24536 | -19.17125 | 38072 ft | 490 kts | 333° |
| 2026-04-27 20:20 | 61.30981 | -19.21892 | 38069 ft | 493 kts | 334° |
| 2026-04-27 20:21 | 61.37492 | -19.26429 | 38066 ft | 494 kts | 335° |
| 2026-04-27 20:21 | 61.44011 | -19.30970 | 38065 ft | 494 kts | 334° |
| 2026-04-27 20:22 | 61.50526 | -19.35628 | 38062 ft | 495 kts | 334° |
| 2026-04-27 20:22 | 61.57033 | -19.40335 | 38059 ft | 495 kts | 334° |
| 2026-04-27 20:23 | 61.63547 | -19.45062 | 38053 ft | 496 kts | 334° |
| 2026-04-27 20:23 | 61.70070 | -19.49810 | 38045 ft | 496 kts | 334° |
| 2026-04-27 20:24 | 61.76604 | -19.54570 | 38038 ft | 497 kts | 334° |
| 2026-04-27 20:24 | 61.83132 | -19.59364 | 38036 ft | 497 kts | 333° |
| 2026-04-27 20:25 | 61.89678 | -19.64175 | 38034 ft | 498 kts | 333° |
| 2026-04-27 20:25 | 61.96226 | -19.69002 | 38031 ft | 498 kts | 333° |
| 2026-04-27 20:26 | 62.02782 | -19.73858 | 38025 ft | 499 kts | 333° |
| 2026-04-27 20:26 | 62.09291 | -19.78731 | 38017 ft | 499 kts | 333° |
| 2026-04-27 20:27 | 62.15849 | -19.83669 | 38015 ft | 500 kts | 333° |
| 2026-04-27 20:27 | 62.22415 | -19.88607 | 38016 ft | 501 kts | 333° |
| 2026-04-27 20:28 | 62.28983 | -19.93580 | 37998 ft | 501 kts | 333° |
| 2026-04-27 20:28 | 62.34500 | -19.97764 | 37997 ft | 501 kts | 332° |
| 2026-04-27 20:29 | 62.38616 | -20.01912 | 37986 ft | 487 kts | 320° |
| 2026-04-27 20:29 | 62.41408 | -20.05968 | 37981 ft | 482 kts | 316° |
| 2026-04-27 20:29 | 62.46894 | -20.14308 | 37983 ft | 483 kts | 316° |
| 2026-04-27 20:30 | 62.52388 | -20.22686 | 37980 ft | 483 kts | 315° |
| 2026-04-27 20:30 | 62.57804 | -20.30944 | 37362 ft | 470 kts | 315° |
| 2026-04-27 20:31 | 62.60467 | -20.35021 | 36696 ft | 467 kts | 315° |
| 2026-04-27 20:31 | 62.63118 | -20.39106 | 36010 ft | 465 kts | 314° |
| 2026-04-27 20:31 | 62.65752 | -20.43188 | 35299 ft | 464 kts | 314° |
| 2026-04-27 20:31 | 62.68382 | -20.47274 | 34590 ft | 464 kts | 313° |
| 2026-04-27 20:32 | 62.71003 | -20.51357 | 33875 ft | 463 kts | 313° |
| 2026-04-27 20:32 | 62.73627 | -20.55446 | 33026 ft | 463 kts | 313° |
| 2026-04-27 20:32 | 62.76259 | -20.59545 | 32129 ft | 464 kts | 314° |
| 2026-04-27 20:32 | 62.78857 | -20.63590 | 31241 ft | 466 kts | 314° |
| 2026-04-27 20:33 | 62.81496 | -20.67704 | 30484 ft | 464 kts | 314° |
| 2026-04-27 20:33 | 62.84112 | -20.71784 | 29826 ft | 460 kts | 314° |
| 2026-04-27 20:33 | 62.86701 | -20.75834 | 29094 ft | 455 kts | 314° |
| 2026-04-27 20:33 | 62.89265 | -20.79857 | 28390 ft | 451 kts | 314° |
| 2026-04-27 20:34 | 62.91802 | -20.83856 | 27713 ft | 447 kts | 314° |
| 2026-04-27 20:34 | 62.94317 | -20.87844 | 27054 ft | 444 kts | 314° |
| 2026-04-27 20:34 | 62.96807 | -20.91808 | 26417 ft | 440 kts | 314° |
| 2026-04-27 20:34 | 62.99277 | -20.95747 | 25800 ft | 437 kts | 314° |
| 2026-04-27 20:35 | 63.01730 | -20.99667 | 25183 ft | 434 kts | 314° |
| 2026-04-27 20:35 | 63.04169 | -21.03562 | 24572 ft | 431 kts | 314° |
| 2026-04-27 20:35 | 63.06588 | -21.07427 | 24004 ft | 428 kts | 314° |
| 2026-04-27 20:35 | 63.08995 | -21.11282 | 23434 ft | 426 kts | 314° |
| 2026-04-27 20:36 | 63.11372 | -21.15100 | 22584 ft | 419 kts | 314° |
| 2026-04-27 20:36 | 63.13718 | -21.18879 | 21598 ft | 415 kts | 314° |
| 2026-04-27 20:36 | 63.16033 | -21.22614 | 20681 ft | 410 kts | 314° |
| 2026-04-27 20:36 | 63.18336 | -21.26279 | 19784 ft | 408 kts | 317° |
| 2026-04-27 20:37 | 63.20815 | -21.29382 | 18933 ft | 410 kts | 325° |
| 2026-04-27 20:37 | 63.23325 | -21.32161 | 18096 ft | 406 kts | 325° |
| 2026-04-27 20:37 | 63.25875 | -21.34971 | 17153 ft | 401 kts | 325° |
| 2026-04-27 20:37 | 63.28330 | -21.37678 | 16269 ft | 397 kts | 325° |
| 2026-04-27 20:38 | 63.30789 | -21.40399 | 15403 ft | 393 kts | 325° |
| 2026-04-27 20:38 | 63.33226 | -21.43101 | 14560 ft | 388 kts | 324° |
| 2026-04-27 20:38 | 63.35633 | -21.45775 | 13748 ft | 385 kts | 324° |
| 2026-04-27 20:38 | 63.38015 | -21.48430 | 12865 ft | 382 kts | 324° |
| 2026-04-27 20:39 | 63.40389 | -21.51093 | 12349 ft | 380 kts | 324° |
| 2026-04-27 20:39 | 63.42737 | -21.53735 | 11862 ft | 376 kts | 324° |
| 2026-04-27 20:39 | 63.45065 | -21.56359 | 11368 ft | 373 kts | 325° |
| 2026-04-27 20:39 | 63.47375 | -21.58966 | 10874 ft | 371 kts | 325° |
| 2026-04-27 20:40 | 63.49672 | -21.61561 | 10389 ft | 368 kts | 325° |
| 2026-04-27 20:40 | 63.51951 | -21.64142 | 9958 ft | 366 kts | 325° |
| 2026-04-27 20:40 | 63.54214 | -21.66713 | 9826 ft | 359 kts | 325° |
| 2026-04-27 20:40 | 63.56359 | -21.69133 | 9837 ft | 340 kts | 324° |
| 2026-04-27 20:41 | 63.58425 | -21.71454 | 9840 ft | 326 kts | 324° |
| 2026-04-27 20:41 | 63.60436 | -21.73730 | 9845 ft | 322 kts | 324° |
| 2026-04-27 20:41 | 63.62401 | -21.75977 | 9835 ft | 321 kts | 324° |
| 2026-04-27 20:41 | 63.64390 | -21.78267 | 9840 ft | 321 kts | 323° |
| 2026-04-27 20:42 | 63.66377 | -21.80566 | 9840 ft | 321 kts | 323° |
| 2026-04-27 20:42 | 63.68363 | -21.82863 | 9840 ft | 321 kts | 324° |
| 2026-04-27 20:42 | 63.70356 | -21.85167 | 9833 ft | 321 kts | 324° |
| 2026-04-27 20:42 | 63.72345 | -21.87463 | 9833 ft | 322 kts | 324° |
| 2026-04-27 20:43 | 63.74340 | -21.89767 | 9832 ft | 322 kts | 324° |
| 2026-04-27 20:43 | 63.76332 | -21.92075 | 9825 ft | 322 kts | 324° |
| 2026-04-27 20:43 | 63.78324 | -21.94386 | 9822 ft | 322 kts | 324° |
| 2026-04-27 20:43 | 63.80320 | -21.96698 | 9819 ft | 323 kts | 324° |
| 2026-04-27 20:44 | 63.82320 | -21.99012 | 9812 ft | 323 kts | 324° |
| 2026-04-27 20:44 | 63.84292 | -22.01295 | 9813 ft | 323 kts | 324° |
| 2026-04-27 20:44 | 63.86294 | -22.03616 | 9802 ft | 323 kts | 324° |
| 2026-04-27 20:44 | 63.88296 | -22.05945 | 9800 ft | 324 kts | 324° |
| 2026-04-27 20:45 | 63.90295 | -22.08272 | 9606 ft | 322 kts | 323° |
| 2026-04-27 20:45 | 63.92283 | -22.10594 | 9181 ft | 320 kts | 324° |
| 2026-04-27 20:45 | 63.94259 | -22.12910 | 8749 ft | 319 kts | 324° |
| 2026-04-27 20:45 | 63.96224 | -22.15216 | 8358 ft | 317 kts | 324° |
| 2026-04-27 20:46 | 63.98171 | -22.17499 | 7797 ft | 313 kts | 324° |
| 2026-04-27 20:46 | 64.00099 | -22.19766 | 7139 ft | 311 kts | 325° |
| 2026-04-27 20:46 | 64.02009 | -22.22015 | 6493 ft | 308 kts | 326° |
| 2026-04-27 20:46 | 64.03906 | -22.24253 | 5825 ft | 305 kts | 326° |
| 2026-04-27 20:47 | 64.05785 | -22.26475 | 5164 ft | 302 kts | 325° |
| 2026-04-27 20:47 | 64.07645 | -22.28676 | 4480 ft | 300 kts | 325° |
| 2026-04-27 20:47 | 64.09463 | -22.30935 | 3773 ft | 294 kts | 319° |
| 2026-04-27 20:47 | 64.11018 | -22.33578 | 3543 ft | 270 kts | 314° |
| 2026-04-27 20:48 | 64.12486 | -22.36095 | 3209 ft | 260 kts | 314° |
| 2026-04-27 20:48 | 64.13464 | -22.37766 | 3017 ft | 260 kts | 314° |
| 2026-04-27 20:48 | 64.15392 | -22.41098 | 2987 ft | 261 kts | 313° |
| 2026-04-27 20:48 | 64.16833 | -22.43594 | 2435 ft | 260 kts | 314° |
| 2026-04-27 20:49 | 64.18221 | -22.46211 | 1910 ft | 252 kts | 301° |
| 2026-04-27 20:49 | 64.18963 | -22.49576 | 1811 ft | 227 kts | 266° |
| 2026-04-27 20:49 | 64.18817 | -22.52856 | 1816 ft | 186 kts | 234° |
| 2026-04-27 20:49 | 64.18304 | -22.55261 | 1814 ft | 154 kts | 224° |
| 2026-04-27 20:50 | 64.17702 | -22.57171 | 1814 ft | 143 kts | 219° |